Time;durP1;ratioP1;P1;durP2;ratioP2;P2;SDS_P1;SDS_P2;PMS_P1;PMS_P2;Temp;Humidity;BMP_temperature;BMP_pressure;BME280_temperature;BME280_humidity;BME280_pressure;Samples;Min_cycle;Max_cycle;Signal;HPM_P1;HPM_P2
2022/06/07 00:02:33;;;;;;;11.70;7.47;;;;;17.50;96277.00;;;;8391621;28;20267;-72
2022/06/07 00:06:38;;;;;;;12.07;7.07;;;;;17.50;96277.00;;;;8401371;28;20754;-69
2022/06/07 00:10:41;;;;;;;8.77;7.07;;;;;17.50;96272.00;;;;8383399;28;20792;-76
2022/06/07 00:14:44;;;;;;;12.10;7.20;;;;;17.50;96279.00;;;;8395400;28;20350;-72
2022/06/07 00:18:47;;;;;;;14.13;7.25;;;;;17.50;96269.00;;;;8390434;28;20295;-73
2022/06/07 00:22:52;;;;;;;13.13;7.70;;;;;17.50;96271.00;;;;8389107;28;20200;-71
2022/06/07 00:26:56;;;;;;;17.98;7.28;;;;;17.60;96273.00;;;;8388295;28;20286;-74
2022/06/07 00:30:59;;;;;;;23.77;8.55;;;;;17.60;96266.00;;;;8402539;28;20237;-68
2022/06/07 00:35:03;;;;;;;16.30;8.27;;;;;17.50;96264.00;;;;8399455;28;20206;-69
2022/06/07 00:39:09;;;;;;;14.82;8.05;;;;;17.60;96270.00;;;;8393235;28;20336;-73
2022/06/07 00:43:12;;;;;;;14.25;8.27;;;;;17.60;96259.00;;;;8403037;28;20200;-72
2022/06/07 00:47:17;;;;;;;12.25;7.80;;;;;17.60;96243.00;;;;8384233;28;20188;-68
2022/06/07 00:51:21;;;;;;;16.35;8.02;;;;;17.60;96243.00;;;;8379938;28;20234;-71
2022/06/07 00:55:26;;;;;;;20.17;8.50;;;;;17.60;96238.00;;;;8388417;28;20192;-69
2022/06/07 00:59:30;;;;;;;16.23;7.68;;;;;17.60;96239.00;;;;8396251;28;20231;-70
2022/06/07 01:03:33;;;;;;;17.15;7.82;;;;;17.60;96240.00;;;;8400175;28;20235;-71
2022/06/07 01:11:58;;;;;;;12.85;8.77;;;;;17.50;96262.00;;;;8383159;28;20314;-73
2022/06/07 01:16:05;;;;;;;16.65;9.00;;;;;17.40;96263.00;;;;8385718;28;20989;-70
2022/06/07 01:20:10;;;;;;;16.05;8.50;;;;;17.40;96267.00;;;;8393435;28;20366;-66
2022/06/07 01:24:16;;;;;;;16.30;9.18;;;;;17.40;96261.00;;;;8385503;28;20195;-74
2022/06/07 01:28:19;;;;;;;13.85;8.45;;;;;17.40;96279.00;;;;8383323;28;20291;-72
2022/06/07 01:32:23;;;;;;;17.95;9.15;;;;;17.50;96281.00;;;;8388354;28;20227;-67
2022/06/07 01:36:26;;;;;;;13.70;8.60;;;;;17.50;96283.00;;;;8397318;28;20279;-69
2022/06/07 01:44:52;;;;;;;17.15;8.60;;;;;17.40;96290.00;;;;8409546;28;20286;-70
2022/06/07 01:48:55;;;;;;;24.45;9.65;;;;;17.30;96290.00;;;;8399525;28;20287;-70
2022/06/07 01:52:58;;;;;;;21.65;8.98;;;;;17.30;96291.00;;;;8404499;28;20581;-71
2022/06/07 01:57:05;;;;;;;17.13;9.23;;;;;17.30;96294.00;;;;8398226;28;20278;-70
2022/06/07 02:01:09;;;;;;;13.63;8.85;;;;;17.10;96286.00;;;;8400716;28;20236;-72
2022/06/07 02:05:13;;;;;;;13.95;8.50;;;;;17.00;96279.00;;;;8392229;28;20306;-72
2022/06/07 02:09:17;;;;;;;15.80;8.63;;;;;17.00;96276.00;;;;8400418;28;20208;-73
2022/06/07 02:13:22;;;;;;;16.35;9.10;;;;;16.90;96271.00;;;;8393706;28;20307;-73
2022/06/07 02:17:25;;;;;;;16.60;9.68;;;;;16.90;96262.00;;;;8387395;28;20188;-72
2022/06/07 02:21:28;;;;;;;18.67;10.23;;;;;16.90;96260.00;;;;8416551;28;20282;-72
2022/06/07 02:25:35;;;;;;;17.05;9.82;;;;;16.90;96248.00;;;;8390157;28;20286;-72
2022/06/07 02:29:43;;;;;;;18.05;10.13;;;;;16.90;96251.00;;;;8390930;28;20251;-72
2022/06/07 02:33:47;;;;;;;18.63;10.32;;;;;16.80;96248.00;;;;8408692;28;20283;-73
2022/06/07 02:37:50;;;;;;;16.70;10.40;;;;;16.80;96251.00;;;;8405975;28;20645;-72
2022/06/07 02:41:55;;;;;;;18.15;10.45;;;;;16.80;96243.00;;;;8389906;28;20223;-72
2022/06/07 02:45:59;;;;;;;20.20;10.88;;;;;16.80;96239.00;;;;8391335;28;20202;-72
2022/06/07 02:50:03;;;;;;;16.58;10.63;;;;;16.90;96237.00;;;;8395446;28;20312;-73
2022/06/07 02:54:06;;;;;;;18.52;10.13;;;;;16.90;96240.00;;;;8394643;28;20268;-78
2022/06/07 02:58:09;;;;;;;19.48;11.50;;;;;16.90;96235.00;;;;8403570;28;20205;-73
2022/06/07 03:02:14;;;;;;;19.60;10.77;;;;;16.90;96227.00;;;;8412000;22;20611;-74
2022/06/07 03:06:17;;;;;;;17.33;11.07;;;;;16.90;96241.00;;;;8396875;28;20200;-79
2022/06/07 03:10:21;;;;;;;22.77;10.52;;;;;16.80;96245.00;;;;8411778;28;20374;-72
2022/06/07 03:14:26;;;;;;;16.58;10.55;;;;;16.70;96242.00;;;;8415168;28;20207;-77
2022/06/07 03:18:33;;;;;;;18.13;10.45;;;;;16.70;96243.00;;;;8431724;28;20208;-77
2022/06/07 03:22:37;;;;;;;18.10;10.30;;;;;16.60;96248.00;;;;8423254;28;20210;-75
2022/06/07 03:26:40;;;;;;;19.60;10.45;;;;;16.70;96253.00;;;;8426520;28;20637;-72
2022/06/07 03:30:43;;;;;;;17.65;10.45;;;;;16.70;96252.00;;;;8412961;28;20771;-74
2022/06/07 03:34:48;;;;;;;24.38;12.80;;;;;16.70;96258.00;;;;8430277;28;20290;-73
2022/06/07 03:38:55;;;;;;;21.30;11.20;;;;;16.70;96248.00;;;;8439850;28;20734;-72
2022/06/07 03:42:58;;;;;;;20.48;11.93;;;;;16.70;96249.00;;;;8399981;28;20202;-74
2022/06/07 03:47:03;;;;;;;31.17;13.40;;;;;16.70;96253.00;;;;8426121;28;20302;-77
2022/06/07 03:51:08;;;;;;;22.48;12.60;;;;;16.70;96246.00;;;;8435999;28;20242;-81
2022/06/07 03:55:11;;;;;;;25.95;14.45;;;;;16.70;96245.00;;;;8412992;28;20282;-79
2022/06/07 03:59:15;;;;;;;24.00;12.60;;;;;16.70;96250.00;;;;8425821;28;20286;-77
2022/06/07 04:03:18;;;;;;;29.52;13.30;;;;;16.70;96251.00;;;;8399515;28;20247;-76
2022/06/07 04:11:44;;;;;;;40.08;14.07;;;;;16.70;96247.00;;;;8372477;28;20322;-72
2022/06/07 04:15:48;;;;;;;33.50;15.20;;;;;16.70;96253.00;;;;8393396;28;20204;-73
2022/06/07 04:19:51;;;;;;;29.13;14.10;;;;;16.70;96249.00;;;;8386918;28;20543;-73
2022/06/07 04:23:56;;;;;;;33.08;14.90;;;;;16.80;96251.00;;;;8389500;28;20610;-73
2022/06/07 04:28:00;;;;;;;30.98;15.85;;;;;16.90;96253.00;;;;8397012;28;20199;-73
2022/06/07 04:32:04;;;;;;;22.27;12.00;;;;;16.90;96256.00;;;;8386754;28;20289;-73
2022/06/07 04:36:11;;;;;;;32.53;13.60;;;;;16.80;96248.00;;;;8390385;28;20210;-75
2022/06/07 04:40:18;;;;;;;23.98;13.00;;;;;16.80;96255.00;;;;8390334;28;20235;-78
2022/06/07 04:44:23;;;;;;;26.60;12.88;;;;;16.80;96265.00;;;;8400083;28;20201;-73
2022/06/07 04:48:26;;;;;;;25.17;13.18;;;;;16.80;96258.00;;;;8396366;28;20229;-76
2022/06/07 04:52:29;;;;;;;24.63;12.73;;;;;16.90;96254.00;;;;8381084;28;20314;-73
2022/06/07 04:56:36;;;;;;;22.90;12.85;;;;;16.90;96257.00;;;;8393584;28;20692;-72
2022/06/07 05:00:39;;;;;;;24.58;12.70;;;;;16.90;96257.00;;;;8380605;28;20609;-71
2022/06/07 05:04:42;;;;;;;25.20;13.07;;;;;16.90;96254.00;;;;8383565;28;20242;-73
2022/06/07 05:08:46;;;;;;;24.10;12.55;;;;;16.90;96255.00;;;;8387620;28;20776;-73
2022/06/07 05:12:50;;;;;;;27.73;12.93;;;;;16.90;96264.00;;;;8391862;28;20223;-72
2022/06/07 05:16:54;;;;;;;25.00;12.18;;;;;16.90;96273.00;;;;8372193;28;20228;-72
2022/06/07 05:20:57;;;;;;;24.08;12.70;;;;;16.90;96266.00;;;;8385341;28;20200;-73
2022/06/07 05:25:00;;;;;;;21.17;11.25;;;;;17.00;96263.00;;;;8378496;28;20238;-73
2022/06/07 05:29:05;;;;;;;27.60;12.85;;;;;17.10;96262.00;;;;8398049;28;21073;-73
2022/06/07 05:33:14;;;;;;;21.13;11.10;;;;;17.20;96271.00;;;;8380841;28;20229;-73
2022/06/07 05:37:20;;;;;;;19.67;10.63;;;;;17.30;96270.00;;;;8387315;28;20286;-75
2022/06/07 05:41:25;;;;;;;20.10;10.88;;;;;17.30;96273.00;;;;8403247;28;20909;-74
2022/06/07 05:45:32;;;;;;;19.25;10.98;;;;;17.50;96266.00;;;;8407829;28;20228;-75
2022/06/07 05:49:36;;;;;;;19.10;10.57;;;;;17.80;96266.00;;;;8390774;28;20684;-74
2022/06/07 05:53:40;;;;;;;16.70;10.38;;;;;18.00;96264.00;;;;8398066;28;20240;-74
2022/06/07 05:57:49;;;;;;;14.70;10.10;;;;;18.10;96268.00;;;;8406894;28;20216;-76
2022/06/07 06:01:54;;;;;;;12.07;8.88;;;;;18.20;96273.00;;;;8399009;28;20362;-76
2022/06/07 06:05:59;;;;;;;12.95;9.07;;;;;18.30;96271.00;;;;8376478;28;20199;-75
2022/06/07 06:10:20;;;;;;;12.90;8.60;;;;;18.40;96267.00;;;;8364670;28;20562;-76
2022/06/07 06:14:26;;;;;;;15.55;8.80;;;;;18.50;96266.00;;;;8398207;28;20968;-74
2022/06/07 06:18:31;;;;;;;12.57;8.10;;;;;18.80;96269.00;;;;8393159;28;20625;-74
2022/06/07 06:22:35;;;;;;;12.13;8.40;;;;;19.00;96272.00;;;;8399557;28;20740;-74
2022/06/07 06:26:38;;;;;;;12.15;7.10;;;;;19.10;96261.00;;;;8387150;28;20199;-74
2022/06/07 06:30:44;;;;;;;10.57;7.53;;;;;19.10;96265.00;;;;8400076;28;20677;-72
2022/06/07 06:34:51;;;;;;;10.43;6.50;;;;;19.10;96268.00;;;;8398649;28;20594;-71
2022/06/07 06:38:55;;;;;;;9.05;7.20;;;;;19.10;96261.00;;;;8379008;28;21853;-71
2022/06/07 06:42:58;;;;;;;11.13;7.40;;;;;19.20;96262.00;;;;8376792;28;20764;-73
2022/06/07 06:47:02;;;;;;;8.82;7.90;;;;;19.40;96256.00;;;;8370596;28;20527;-71
2022/06/07 06:51:10;;;;;;;11.70;7.00;;;;;19.50;96256.00;;;;8372361;28;20242;-71
2022/06/07 06:55:13;;;;;;;9.30;7.43;;;;;19.80;96253.00;;;;8379162;28;20197;-70
2022/06/07 06:59:17;;;;;;;12.35;6.43;;;;;20.00;96265.00;;;;8380536;28;20232;-72
2022/06/07 07:03:22;;;;;;;9.32;6.10;;;;;20.10;96268.00;;;;8383586;28;20234;-71
2022/06/07 07:07:26;;;;;;;10.48;6.22;;;;;20.30;96269.00;;;;8388370;28;20207;-72
2022/06/07 07:11:32;;;;;;;8.68;5.93;;;;;20.20;96269.00;;;;8369008;28;20255;-73
2022/06/07 07:15:35;;;;;;;9.98;6.15;;;;;20.30;96276.00;;;;8375316;28;20320;-79
2022/06/07 07:19:38;;;;;;;11.45;6.47;;;;;20.20;96278.00;;;;8384716;28;20287;-71
2022/06/07 07:23:44;;;;;;;11.32;6.25;;;;;20.20;96281.00;;;;8383937;28;20224;-73
2022/06/07 07:27:47;;;;;;;10.38;6.20;;;;;20.30;96265.00;;;;8397048;28;20907;-75
2022/06/07 07:31:51;;;;;;;6.82;5.93;;;;;20.60;96273.00;;;;8392342;28;20315;-71
2022/06/07 07:35:54;;;;;;;7.40;6.05;;;;;21.10;96277.00;;;;8397338;28;20196;-76
2022/06/07 07:39:59;;;;;;;6.22;5.72;;;;;21.20;96282.00;;;;8394247;28;20210;-77
2022/06/07 07:44:05;;;;;;;8.20;5.50;;;;;21.20;96280.00;;;;8383340;28;20658;-74
2022/06/07 07:48:11;;;;;;;5.35;4.85;;;;;21.30;96279.00;;;;8389553;28;20230;-73
2022/06/07 07:52:18;;;;;;;8.30;5.38;;;;;21.30;96273.00;;;;8381456;28;21054;-76
2022/06/07 07:56:25;;;;;;;6.22;5.63;;;;;21.30;96279.00;;;;8399335;28;20191;-72
2022/06/07 08:00:31;;;;;;;6.10;5.10;;;;;21.40;96278.00;;;;8381086;28;20213;-77
2022/06/07 08:04:34;;;;;;;5.28;4.80;;;;;21.50;96278.00;;;;8381805;28;20223;-71
2022/06/07 08:08:37;;;;;;;5.72;4.75;;;;;21.60;96282.00;;;;8371610;28;20238;-73
2022/06/07 08:12:43;;;;;;;6.05;5.30;;;;;22.10;96291.00;;;;8372219;28;20860;-71
2022/06/07 08:16:49;;;;;;;4.95;4.55;;;;;22.20;96285.00;;;;8371366;28;20205;-70
2022/06/07 08:20:58;;;;;;;5.57;4.80;;;;;22.60;96280.00;;;;8372756;28;20253;-69
2022/06/07 08:25:01;;;;;;;4.20;3.80;;;;;22.80;96283.00;;;;8372169;28;20762;-76
2022/06/07 08:29:06;;;;;;;5.15;3.97;;;;;22.90;96278.00;;;;8369085;28;20220;-75
2022/06/07 08:37:37;;;;;;;6.78;3.10;;;;;23.00;96285.00;;;;8374070;28;20198;-73
2022/06/07 08:41:46;;;;;;;3.30;2.92;;;;;23.20;96285.00;;;;8371785;28;20200;-72
2022/06/07 08:45:51;;;;;;;4.00;2.90;;;;;23.00;96281.00;;;;8367115;28;20312;-71
2022/06/07 08:49:56;;;;;;;7.70;2.42;;;;;23.10;96276.00;;;;8365650;28;20190;-73
2022/06/07 08:54:04;;;;;;;2.75;2.50;;;;;23.20;96275.00;;;;8371626;28;20225;-71
2022/06/07 08:58:16;;;;;;;4.75;2.50;;;;;23.10;96278.00;;;;8367700;28;20216;-71
2022/06/07 09:02:43;;;;;;;3.08;2.60;;;;;23.00;96270.00;;;;8377694;28;20236;-73
2022/06/07 09:06:49;;;;;;;2.20;2.05;;;;;22.80;96275.00;;;;8366914;28;20201;-75
2022/06/07 09:15:16;;;;;;;2.55;2.15;;;;;22.90;96273.00;;;;8408011;28;20228;-79
2022/06/07 09:19:25;;;;;;;2.33;2.13;;;;;22.80;96284.00;;;;8397649;28;20281;-71
2022/06/07 09:23:34;;;;;;;2.65;2.42;;;;;22.60;96288.00;;;;8410014;28;20231;-72
2022/06/07 09:27:38;;;;;;;3.40;2.50;;;;;22.50;96288.00;;;;8404149;28;20206;-70
2022/06/07 09:31:43;;;;;;;2.40;2.30;;;;;22.50;96286.00;;;;8403524;28;20227;-70
2022/06/07 09:35:50;;;;;;;2.88;2.60;;;;;22.40;96283.00;;;;8409252;28;20247;-70
2022/06/07 09:40:00;;;;;;;2.80;2.60;;;;;22.20;96279.00;;;;8386956;28;20209;-73
2022/06/07 09:44:10;;;;;;;3.45;3.05;;;;;22.30;96284.00;;;;8391462;28;20216;-67
2022/06/07 09:48:25;;;;;;;3.08;2.75;;;;;22.20;96291.00;;;;8403763;28;20203;-74
2022/06/07 09:52:31;;;;;;;6.05;2.50;;;;;22.30;96279.00;;;;8382070;28;20221;-71
2022/06/07 09:56:41;;;;;;;2.38;2.28;;;;;22.30;96278.00;;;;8382782;28;20275;-70
2022/06/07 10:00:50;;;;;;;4.18;2.90;;;;;22.30;96280.00;;;;8384813;28;20657;-71
2022/06/07 10:05:01;;;;;;;2.65;2.00;;;;;21.90;96277.00;;;;8381774;28;20243;-73
2022/06/07 10:09:28;;;;;;;1.88;1.70;;;;;21.80;96274.00;;;;8383211;28;20282;-70
2022/06/07 10:13:50;;;;;;;4.25;2.55;;;;;22.50;96272.00;;;;8379730;28;20278;-77
2022/06/07 10:18:13;;;;;;;2.38;1.73;;;;;23.20;96275.00;;;;8383675;28;20200;-72
2022/06/07 10:22:33;;;;;;;6.03;2.10;;;;;24.20;96266.00;;;;8385349;28;20638;-75
2022/06/07 10:26:59;;;;;;;4.55;1.85;;;;;24.90;96272.00;;;;8377948;28;20927;-69
2022/06/07 10:31:07;;;;;;;10.10;1.80;;;;;25.00;96271.00;;;;8390589;28;20292;-71
2022/06/07 10:35:21;;;;;;;1.73;1.50;;;;;25.40;96267.00;;;;8407136;28;20219;-72
2022/06/07 10:39:45;;;;;;;1.60;1.45;;;;;25.50;96263.00;;;;8395669;28;20200;-72
2022/06/07 10:43:56;;;;;;;1.33;1.20;;;;;26.00;96261.00;;;;8387622;28;20204;-72
2022/06/07 10:48:05;;;;;;;1.77;1.10;;;;;26.10;96268.00;;;;8394991;28;20274;-71
2022/06/07 10:52:27;;;;;;;1.65;1.55;;;;;26.20;96255.00;;;;8384588;28;20201;-72
2022/06/07 10:56:33;;;;;;;1.10;1.10;;;;;26.40;96248.00;;;;8407783;28;20231;-71
2022/06/07 11:00:43;;;;;;;2.80;1.42;;;;;26.30;96254.00;;;;8392073;28;20775;-71
2022/06/07 11:09:23;;;;;;;1.63;0.88;;;;;26.20;96253.00;;;;8393879;28;20202;-71
2022/06/07 11:13:37;;;;;;;4.18;1.17;;;;;26.30;96253.00;;;;8392358;28;20228;-71
2022/06/07 11:17:46;;;;;;;1.92;1.27;;;;;26.60;96250.00;;;;8386557;28;20750;-71
2022/06/07 11:21:57;;;;;;;1.95;1.20;;;;;26.80;96256.00;;;;8396456;28;20216;-71
2022/06/07 11:26:02;;;;;;;2.15;1.10;;;;;27.10;96256.00;;;;8383949;28;20603;-71
2022/06/07 11:30:42;;;;;;;2.00;1.25;;;;;27.60;96258.00;;;;8386775;28;20204;-71
2022/06/07 11:34:47;;;;;;;2.40;1.00;;;;;28.50;96258.00;;;;8392092;28;20732;-72
2022/06/07 11:39:24;;;;;;;1.00;1.00;;;;;28.70;96258.00;;;;8403787;28;20529;-71
2022/06/07 11:43:50;;;;;;;2.03;1.15;;;;;29.50;96256.00;;;;8387481;28;20287;-71
2022/06/07 11:48:13;;;;;;;1.10;1.00;;;;;29.90;96254.00;;;;8377708;28;20196;-72
2022/06/07 11:52:25;;;;;;;4.95;1.10;;;;;29.50;96247.00;;;;8374805;28;20677;-69
2022/06/07 11:56:36;;;;;;;2.40;1.23;;;;;28.90;96248.00;;;;8373941;28;20310;-69
2022/06/07 12:00:49;;;;;;;2.45;1.08;;;;;28.60;96249.00;;;;8376263;28;20200;-70
2022/06/07 12:05:01;;;;;;;2.65;1.10;;;;;28.10;96248.00;;;;8375897;28;20220;-70
2022/06/07 12:09:06;;;;;;;1.17;1.10;;;;;27.30;96238.00;;;;8376142;28;20959;-69
2022/06/07 12:13:14;;;;;;;4.68;1.33;;;;;27.00;96239.00;;;;8385567;28;20234;-72
2022/06/07 12:17:29;;;;;;;1.33;1.20;;;;;27.00;96218.00;;;;8385439;28;20295;-70
2022/06/07 12:21:35;;;;;;;5.57;1.55;;;;;26.70;96219.00;;;;8390722;28;20751;-72
2022/06/07 12:25:41;;;;;;;1.13;1.13;;;;;26.70;96215.00;;;;8383620;28;20291;-70
2022/06/07 12:29:45;;;;;;;1.02;1.00;;;;;27.10;96211.00;;;;8381140;28;20205;-69
2022/06/07 12:33:53;;;;;;;1.30;1.20;;;;;27.80;96204.00;;;;8389025;28;20315;-71
2022/06/07 12:37:58;;;;;;;2.13;1.38;;;;;28.50;96215.00;;;;8402337;28;20199;-70
2022/06/07 12:42:14;;;;;;;6.50;1.70;;;;;28.60;96229.00;;;;8390113;28;20668;-70
2022/06/07 12:46:20;;;;;;;1.10;1.10;;;;;28.00;96214.00;;;;8386520;28;20657;-70
2022/06/07 12:50:28;;;;;;;1.73;1.63;;;;;28.50;96215.00;;;;8394321;28;20616;-70
2022/06/07 12:54:33;;;;;;;1.00;1.00;;;;;29.20;96212.00;;;;8391661;28;20257;-69
2022/06/07 12:58:49;;;;;;;1.30;1.20;;;;;29.30;96218.00;;;;8378293;28;20253;-70
2022/06/07 13:02:55;;;;;;;1.60;1.40;;;;;29.40;96214.00;;;;8385196;28;20231;-72
2022/06/07 13:07:04;;;;;;;1.95;1.25;;;;;29.40;96209.00;;;;8391243;28;20257;-70
2022/06/07 13:11:30;;;;;;;1.13;1.10;;;;;29.30;96204.00;;;;8381881;28;20210;-70
2022/06/07 13:15:37;;;;;;;1.38;1.27;;;;;30.00;96205.00;;;;8400062;28;20219;-72
2022/06/07 13:19:45;;;;;;;1.30;1.30;;;;;30.40;96195.00;;;;8381395;28;20214;-71
2022/06/07 13:23:54;;;;;;;1.52;1.42;;;;;29.60;96189.00;;;;8391997;28;20253;-71
2022/06/07 13:28:03;;;;;;;2.30;1.30;;;;;29.00;96186.00;;;;8387541;28;20235;-69
2022/06/07 13:32:22;;;;;;;1.73;1.40;;;;;29.50;96189.00;;;;8382205;28;20204;-72
2022/06/07 13:36:36;;;;;;;1.17;1.10;;;;;30.00;96176.00;;;;8378522;28;20231;-68
2022/06/07 13:40:39;;;;;;;1.30;1.15;;;;;30.90;96171.00;;;;8383848;28;20252;-70
2022/06/07 13:44:46;;;;;;;1.67;1.30;;;;;31.20;96179.00;;;;8397452;28;20196;-73
2022/06/07 13:53:24;;;;;;;2.33;1.20;;;;;31.40;96182.00;;;;8387769;28;20230;-70
2022/06/07 13:57:28;;;;;;;1.13;0.98;;;;;30.90;96173.00;;;;8393110;28;20202;-71
2022/06/07 14:01:35;;;;;;;1.23;1.15;;;;;29.90;96162.00;;;;8385697;28;20204;-74
2022/06/07 14:05:39;;;;;;;1.92;1.23;;;;;29.50;96171.00;;;;8392727;28;20681;-70
2022/06/07 14:09:43;;;;;;;1.38;1.30;;;;;29.20;96162.00;;;;8393055;28;20196;-72
2022/06/07 14:13:47;;;;;;;1.33;1.10;;;;;28.60;96172.00;;;;8403531;28;20227;-72
2022/06/07 14:17:52;;;;;;;1.75;1.05;;;;;28.00;96167.00;;;;8401859;28;20694;-68
2022/06/07 14:21:58;;;;;;;2.92;1.15;;;;;27.60;96169.00;;;;8396519;28;20211;-73
2022/06/07 14:26:02;;;;;;;1.08;1.08;;;;;27.10;96167.00;;;;8392548;28;20192;-68
2022/06/07 14:30:07;;;;;;;1.30;1.30;;;;;26.70;96162.00;;;;8410512;28;20282;-68
2022/06/07 14:34:22;;;;;;;1.60;1.30;;;;;26.50;96157.00;;;;8382736;28;20250;-71
2022/06/07 14:38:34;;;;;;;1.80;1.30;;;;;26.50;96160.00;;;;8372957;28;20286;-71
2022/06/07 14:42:37;;;;;;;1.42;1.20;;;;;26.50;96155.00;;;;8383955;28;20204;-73
2022/06/07 14:46:41;;;;;;;3.60;1.48;;;;;26.40;96157.00;;;;8379179;28;20786;-71
2022/06/07 14:50:45;;;;;;;1.50;1.40;;;;;26.30;96160.00;;;;8386411;28;20205;-71
2022/06/07 14:54:49;;;;;;;1.30;1.20;;;;;26.10;96161.00;;;;8395525;28;20223;-69
2022/06/07 14:58:52;;;;;;;1.67;1.13;;;;;26.00;96160.00;;;;8391654;28;20197;-73
2022/06/07 15:02:59;;;;;;;3.03;1.27;;;;;26.00;96160.00;;;;8391478;28;20238;-70
2022/06/07 15:07:09;;;;;;;2.67;1.15;;;;;25.80;96153.00;;;;8374454;28;20637;-68
2022/06/07 15:11:25;;;;;;;1.38;1.27;;;;;25.50;96154.00;;;;8370862;28;20204;-70
2022/06/07 15:15:28;;;;;;;1.50;0.95;;;;;25.30;96153.00;;;;8377143;28;20231;-69
2022/06/07 15:19:33;;;;;;;1.33;1.00;;;;;25.10;96153.00;;;;8369493;28;20211;-76
2022/06/07 15:23:38;;;;;;;2.17;1.13;;;;;25.20;96152.00;;;;8383771;28;20196;-69
2022/06/07 15:27:43;;;;;;;3.33;1.10;;;;;25.70;96153.00;;;;8408547;28;20203;-75
2022/06/07 15:31:46;;;;;;;3.08;1.23;;;;;25.80;96153.00;;;;8375111;28;20209;-70
2022/06/07 15:35:49;;;;;;;3.05;1.40;;;;;25.80;96142.00;;;;8376208;28;20224;-68
2022/06/07 15:39:52;;;;;;;1.65;1.20;;;;;25.70;96145.00;;;;8373374;28;20204;-68
2022/06/07 15:44:08;;;;;;;1.35;1.10;;;;;25.70;96146.00;;;;8361495;28;20205;-73
2022/06/07 15:48:14;;;;;;;1.48;1.13;;;;;25.80;96134.00;;;;8369891;28;20299;-74
2022/06/07 15:52:17;;;;;;;1.35;1.25;;;;;25.80;96131.00;;;;8376903;28;20208;-70
2022/06/07 15:56:20;;;;;;;2.03;1.35;;;;;25.60;96132.00;;;;8383833;28;20236;-73
2022/06/07 16:00:25;;;;;;;1.10;1.10;;;;;25.20;96131.00;;;;8384571;28;20203;-70
2022/06/07 16:04:28;;;;;;;1.88;1.20;;;;;25.00;96135.00;;;;8384750;28;20239;-68
2022/06/07 16:08:31;;;;;;;2.03;1.30;;;;;24.90;96125.00;;;;8386430;28;20208;-68
2022/06/07 16:12:34;;;;;;;1.30;1.30;;;;;24.70;96127.00;;;;8372798;28;20290;-71
2022/06/07 16:16:42;;;;;;;3.95;1.52;;;;;24.50;96123.00;;;;8380818;28;20235;-66
2022/06/07 16:20:46;;;;;;;1.50;1.40;;;;;24.40;96126.00;;;;8383639;28;20216;-70
2022/06/07 16:24:49;;;;;;;1.70;1.40;;;;;24.40;96135.00;;;;8374360;28;20201;-69
2022/06/07 16:33:21;;;;;;;1.60;1.50;;;;;24.40;96137.00;;;;8375097;28;20886;-69
2022/06/07 16:37:24;;;;;;;4.47;1.17;;;;;24.40;96130.00;;;;8378975;28;20220;-71
2022/06/07 16:41:27;;;;;;;1.25;1.17;;;;;24.30;96134.00;;;;8368228;28;20199;-68
2022/06/07 16:45:30;;;;;;;2.17;1.30;;;;;24.30;96132.00;;;;8381305;28;20480;-72
2022/06/07 16:49:36;;;;;;;1.60;1.50;;;;;24.30;96132.00;;;;8376471;28;20283;-76
2022/06/07 16:53:40;;;;;;;3.05;1.30;;;;;24.30;96136.00;;;;8384097;28;20938;-68
2022/06/07 16:57:43;;;;;;;1.77;1.40;;;;;24.10;96134.00;;;;8382831;28;20290;-71
2022/06/07 17:01:46;;;;;;;2.28;1.42;;;;;24.00;96134.00;;;;8374003;28;20301;-76
2022/06/07 17:05:50;;;;;;;3.13;1.67;;;;;24.00;96128.00;;;;8396809;28;20196;-69
2022/06/07 17:09:54;;;;;;;1.48;1.48;;;;;24.60;96130.00;;;;8405130;28;20208;-68
2022/06/07 17:13:57;;;;;;;3.63;1.90;;;;;25.90;96135.00;;;;8375661;28;20196;-69
2022/06/07 17:18:07;;;;;;;4.45;1.63;;;;;26.90;96135.00;;;;8389149;28;20228;-69
2022/06/07 17:22:12;;;;;;;2.97;1.90;;;;;27.10;96147.00;;;;8390275;28;20200;-68
2022/06/07 17:26:18;;;;;;;5.18;1.60;;;;;26.90;96138.00;;;;8380193;28;20298;-71
2022/06/07 17:30:22;;;;;;;1.60;1.50;;;;;26.70;96138.00;;;;8371330;28;20200;-68
2022/06/07 17:34:25;;;;;;;4.32;1.63;;;;;26.10;96138.00;;;;8376121;28;20201;-70
2022/06/07 17:38:31;;;;;;;1.92;1.60;;;;;25.80;96134.00;;;;8375713;28;20227;-70
2022/06/07 17:42:34;;;;;;;1.60;1.50;;;;;26.10;96138.00;;;;8378242;28;20200;-72
2022/06/07 17:46:37;;;;;;;2.53;1.60;;;;;25.90;96136.00;;;;8379863;28;20295;-72
2022/06/07 17:50:41;;;;;;;3.50;1.60;;;;;26.10;96139.00;;;;8380479;28;20202;-72
2022/06/07 17:54:47;;;;;;;1.65;1.50;;;;;25.80;96137.00;;;;8386784;28;20192;-69
2022/06/07 17:58:51;;;;;;;2.30;1.50;;;;;25.40;96138.00;;;;8382307;28;20645;-71
2022/06/07 18:02:55;;;;;;;1.73;1.60;;;;;24.90;96138.00;;;;8384269;28;20980;-73
2022/06/07 18:06:58;;;;;;;1.85;1.70;;;;;24.30;96138.00;;;;8379583;28;20196;-69
2022/06/07 18:11:03;;;;;;;1.67;1.60;;;;;23.80;96145.00;;;;8384747;28;20208;-76
2022/06/07 18:15:07;;;;;;;1.60;1.50;;;;;23.60;96141.00;;;;8379435;28;20251;-69
2022/06/07 18:19:10;;;;;;;2.72;2.13;;;;;23.30;96137.00;;;;8383409;28;20222;-71
2022/06/07 18:23:16;;;;;;;1.63;1.50;;;;;23.00;96140.00;;;;8381886;28;20197;-70
2022/06/07 18:27:20;;;;;;;2.35;1.77;;;;;22.70;96154.00;;;;8389352;28;20196;-69
2022/06/07 18:31:26;;;;;;;5.30;2.03;;;;;22.50;96142.00;;;;8385516;28;20231;-69
2022/06/07 18:35:31;;;;;;;1.80;1.70;;;;;22.30;96147.00;;;;8377120;28;20818;-70
2022/06/07 18:39:34;;;;;;;2.40;1.73;;;;;22.10;96151.00;;;;8381936;28;20211;-68
2022/06/07 18:43:39;;;;;;;2.00;1.90;;;;;21.80;96152.00;;;;8384138;28;20568;-70
2022/06/07 18:47:43;;;;;;;3.40;1.60;;;;;21.60;96155.00;;;;8379815;28;20209;-71
2022/06/07 18:51:46;;;;;;;2.80;2.10;;;;;21.50;96150.00;;;;8387701;28;20224;-70
2022/06/07 18:55:49;;;;;;;1.85;1.75;;;;;21.30;96151.00;;;;8373167;28;20211;-72
2022/06/07 18:59:54;;;;;;;3.10;1.98;;;;;21.20;96158.00;;;;8384169;28;20457;-70
2022/06/07 19:03:59;;;;;;;5.47;2.05;;;;;21.10;96156.00;;;;8381400;28;20228;-71
2022/06/07 19:08:03;;;;;;;1.95;1.85;;;;;21.00;96157.00;;;;8384012;28;20569;-71
2022/06/07 19:12:10;;;;;;;2.65;1.98;;;;;20.90;96169.00;;;;8382315;28;20285;-70
2022/06/07 19:16:15;;;;;;;1.80;1.70;;;;;20.70;96172.00;;;;8382619;28;20228;-71
2022/06/07 19:20:21;;;;;;;3.95;2.00;;;;;20.50;96169.00;;;;8375985;28;20867;-73
2022/06/07 19:24:25;;;;;;;3.60;2.00;;;;;20.30;96171.00;;;;8375464;28;20698;-78
2022/06/07 19:28:31;;;;;;;2.95;2.28;;;;;20.00;96172.00;;;;8379028;28;20246;-73
2022/06/07 19:32:35;;;;;;;2.60;2.30;;;;;19.70;96175.00;;;;8370102;28;20207;-77
2022/06/07 19:36:39;;;;;;;3.10;2.20;;;;;19.40;96177.00;;;;8370522;28;20251;-72
2022/06/07 19:40:43;;;;;;;4.13;2.28;;;;;19.10;96183.00;;;;8375683;28;20687;-70
2022/06/07 19:44:46;;;;;;;8.75;2.63;;;;;18.80;96179.00;;;;8370175;28;20200;-70
2022/06/07 19:48:51;;;;;;;3.58;2.45;;;;;18.60;96179.00;;;;8372188;28;20246;-77
2022/06/07 19:52:55;;;;;;;8.20;2.30;;;;;18.40;96178.00;;;;8378389;28;20289;-66
2022/06/07 19:57:02;;;;;;;3.13;2.00;;;;;18.30;96186.00;;;;8368436;28;20628;-71
2022/06/07 20:01:05;;;;;;;8.55;2.47;;;;;18.10;96189.00;;;;8379575;28;20199;-69
2022/06/07 20:05:10;;;;;;;8.57;2.50;;;;;17.90;96189.00;;;;8382829;28;20290;-75
2022/06/07 20:09:16;;;;;;;3.38;2.10;;;;;17.70;96190.00;;;;8375405;28;20211;-79
2022/06/07 20:13:20;;;;;;;2.72;2.40;;;;;17.50;96189.00;;;;8372684;28;20200;-70
2022/06/07 20:17:23;;;;;;;8.30;2.38;;;;;17.30;96198.00;;;;8384981;28;20235;-66
2022/06/07 20:21:28;;;;;;;2.15;2.05;;;;;17.10;96191.00;;;;8375887;28;20196;-73
2022/06/07 20:25:31;;;;;;;8.38;2.88;;;;;17.00;96197.00;;;;8370218;28;20280;-78
2022/06/07 20:29:36;;;;;;;9.55;2.60;;;;;16.80;96197.00;;;;8380708;28;20230;-78
2022/06/07 20:33:41;;;;;;;5.07;2.28;;;;;16.70;96196.00;;;;8396288;28;20196;-74
2022/06/07 20:37:48;;;;;;;8.07;3.47;;;;;16.60;96191.00;;;;8389017;28;20234;-72
2022/06/07 20:41:51;;;;;;;2.70;2.50;;;;;16.50;96190.00;;;;8373993;28;20331;-72
2022/06/07 20:45:54;;;;;;;6.97;3.10;;;;;16.30;96185.00;;;;8384903;28;20747;-71
2022/06/07 20:49:57;;;;;;;8.98;3.40;;;;;16.30;96190.00;;;;8383569;28;20196;-73
2022/06/07 20:54:02;;;;;;;6.90;3.20;;;;;16.10;96185.00;;;;8380993;28;20303;-71
2022/06/07 20:58:06;;;;;;;7.88;2.80;;;;;16.00;96181.00;;;;8386086;28;20233;-74
2022/06/07 21:02:09;;;;;;;7.13;2.60;;;;;15.90;96176.00;;;;8381761;28;20673;-71